createdAt,value
2018-08-13T00:01:58.655Z,20.50
2018-08-13T00:04:26.091Z,20.40
2018-08-13T00:06:54.183Z,20.40
2018-08-13T00:09:27.218Z,20.30
2018-08-13T00:11:54.668Z,20.20
2018-08-13T00:14:22.551Z,20.10
2018-08-13T00:16:50.099Z,20.10
2018-08-13T00:19:17.741Z,20.10
2018-08-13T00:21:45.164Z,20.20
2018-08-13T00:24:12.563Z,20.20
2018-08-13T00:26:39.955Z,20.20
2018-08-13T00:29:07.373Z,20.30
2018-08-13T00:31:34.826Z,20.30
2018-08-13T00:34:05.483Z,20.30
2018-08-13T00:36:32.867Z,20.30
2018-08-13T00:39:00.284Z,20.30
2018-08-13T00:41:27.740Z,20.30
2018-08-13T00:43:55.218Z,20.30
2018-08-13T00:46:22.814Z,20.30
2018-08-13T00:48:50.274Z,20.30
2018-08-13T00:51:17.835Z,20.40
2018-08-13T00:53:45.219Z,20.40
2018-08-13T00:56:12.648Z,20.40
2018-08-13T00:58:40.035Z,20.40
2018-08-13T01:01:07.432Z,20.40
2018-08-13T01:03:34.844Z,20.40
2018-08-13T01:06:02.275Z,20.40
2018-08-13T01:08:29.818Z,20.30
2018-08-13T01:10:57.255Z,20.40
2018-08-13T01:13:24.662Z,20.50
2018-08-13T01:15:52.160Z,20.60
2018-08-13T01:18:19.555Z,20.70
2018-08-13T01:20:46.939Z,20.70
2018-08-13T01:23:14.334Z,20.70
2018-08-13T01:25:41.743Z,20.80
2018-08-13T01:28:09.059Z,20.80
2018-08-13T01:30:36.386Z,20.80
2018-08-13T01:33:03.783Z,20.80
2018-08-13T01:35:31.231Z,20.80
2018-08-13T01:37:58.587Z,20.70
2018-08-13T01:40:25.991Z,20.70
2018-08-13T01:42:53.335Z,20.60
2018-08-13T01:45:20.718Z,20.60
2018-08-13T01:47:48.080Z,20.60
2018-08-13T01:50:15.527Z,20.60
2018-08-13T01:52:42.918Z,20.50
2018-08-13T01:55:10.506Z,20.50
2018-08-13T01:57:37.862Z,20.40
2018-08-13T02:00:09.115Z,20.40
2018-08-13T02:02:36.444Z,20.40
2018-08-13T02:05:04.339Z,20.40
2018-08-13T02:07:31.688Z,20.40
2018-08-13T02:09:59.030Z,20.30
2018-08-13T02:12:26.378Z,20.20
2018-08-13T02:14:53.728Z,20.10
2018-08-13T02:17:21.063Z,20.20
2018-08-13T02:19:48.482Z,20.10
2018-08-13T02:22:19.445Z,20.00
2018-08-13T02:24:47.385Z,20.20
2018-08-13T02:27:14.781Z,20.30
2018-08-13T02:29:42.648Z,20.30
2018-08-13T02:32:10.095Z,20.40
2018-08-13T02:34:37.493Z,20.40
2018-08-13T02:37:05.014Z,20.30
2018-08-13T02:39:32.394Z,20.40
2018-08-13T02:41:59.915Z,20.50
2018-08-13T02:44:27.375Z,20.30
2018-08-13T02:46:54.775Z,20.50
2018-08-13T02:49:22.302Z,20.60
2018-08-13T02:51:49.686Z,20.60
2018-08-13T02:54:17.206Z,20.60
2018-08-13T02:56:44.642Z,20.60
2018-08-13T02:59:12.106Z,20.60
2018-08-13T03:01:40.142Z,20.60
2018-08-13T03:04:07.543Z,20.60
2018-08-13T03:06:34.936Z,20.60
2018-08-13T03:09:02.699Z,20.70
2018-08-13T03:11:30.159Z,20.70
2018-08-13T03:13:57.627Z,20.60
2018-08-13T03:16:25.140Z,20.70
2018-08-13T03:18:52.622Z,20.80
2018-08-13T03:21:20.019Z,20.80
2018-08-13T03:23:47.703Z,20.90
2018-08-13T03:26:15.035Z,20.80
2018-08-13T03:28:42.388Z,20.80
2018-08-13T03:31:09.847Z,20.80
2018-08-13T03:33:37.397Z,20.80
2018-08-13T03:36:04.803Z,20.80
2018-08-13T03:38:32.131Z,20.70
2018-08-13T03:40:59.459Z,20.70
2018-08-13T03:43:26.827Z,20.70
2018-08-13T03:45:54.207Z,20.70
2018-08-13T03:48:21.604Z,20.60
2018-08-13T03:50:49.127Z,20.60
2018-08-13T03:53:16.459Z,20.50
2018-08-13T03:55:44.397Z,20.40
2018-08-13T03:58:11.739Z,20.40
2018-08-13T04:00:39.137Z,20.40
2018-08-13T04:03:06.818Z,20.30
2018-08-13T04:05:34.242Z,20.40
2018-08-13T04:08:01.617Z,20.40
2018-08-13T04:10:29.051Z,20.40
2018-08-13T04:12:56.523Z,20.50
2018-08-13T04:15:23.857Z,20.60
2018-08-13T04:17:51.223Z,20.70
2018-08-13T04:20:18.626Z,20.60
2018-08-13T04:22:46.039Z,20.70
2018-08-13T04:25:13.973Z,20.80
2018-08-13T04:27:41.377Z,20.90
2018-08-13T04:30:14.024Z,20.90
2018-08-13T04:32:42.238Z,21.00
2018-08-13T04:35:09.591Z,21.00
2018-08-13T04:37:37.410Z,21.00
2018-08-13T04:40:06.855Z,21.00
2018-08-13T04:42:34.272Z,21.00
2018-08-13T04:47:58.515Z,21.10
2018-08-13T04:50:25.914Z,21.00
2018-08-13T04:52:53.368Z,20.90
2018-08-13T04:55:21.072Z,20.90
2018-08-13T04:57:48.603Z,20.90
2018-08-13T05:00:16.014Z,20.90
2018-08-13T05:02:43.432Z,21.00
2018-08-13T05:05:11.398Z,21.10
2018-08-13T05:07:39.133Z,21.30
2018-08-13T05:10:07.622Z,21.30
2018-08-13T05:12:35.012Z,21.50
2018-08-13T05:15:02.547Z,21.60
2018-08-13T05:17:30.318Z,21.70
2018-08-13T05:19:57.691Z,21.60
2018-08-13T05:22:25.214Z,21.70
2018-08-13T05:24:52.614Z,21.60
2018-08-13T05:27:19.990Z,21.50
2018-08-13T05:29:47.433Z,21.50
2018-08-13T05:32:14.851Z,21.70
2018-08-13T05:34:42.256Z,21.70
2018-08-13T05:37:09.693Z,21.60
2018-08-13T05:39:37.100Z,21.40
2018-08-13T05:42:04.519Z,21.30
2018-08-13T05:44:31.950Z,21.40
2018-08-13T05:46:59.326Z,21.40
2018-08-13T05:49:26.710Z,21.40
2018-08-13T05:51:54.120Z,21.50
2018-08-13T05:54:21.547Z,21.50
2018-08-13T05:56:49.130Z,21.50
2018-08-13T05:59:16.534Z,21.40
2018-08-13T06:01:43.902Z,21.30
2018-08-13T06:04:12.816Z,21.20
2018-08-13T06:06:40.223Z,21.10
2018-08-13T06:09:09.047Z,20.90
2018-08-13T06:11:36.536Z,20.90
2018-08-13T06:14:03.971Z,20.70
2018-08-13T06:16:31.470Z,20.60
2018-08-13T06:18:58.838Z,20.50
2018-08-13T06:21:26.262Z,20.50
2018-08-13T06:23:53.766Z,20.40
2018-08-13T06:26:21.383Z,20.50
2018-08-13T06:28:48.785Z,20.50
2018-08-13T06:31:16.245Z,20.60
2018-08-13T06:33:43.651Z,20.60
2018-08-13T06:36:11.060Z,20.40
2018-08-13T06:38:38.535Z,20.40
2018-08-13T06:41:05.951Z,20.20
2018-08-13T06:43:33.360Z,20.10
2018-08-13T06:46:00.763Z,19.90
2018-08-13T06:48:28.134Z,19.80
2018-08-13T06:50:55.578Z,19.60
2018-08-13T06:53:22.970Z,19.50
2018-08-13T06:55:50.391Z,19.40
2018-08-13T06:58:17.928Z,19.30
2018-08-13T07:00:45.392Z,19.00
2018-08-13T07:03:12.832Z,18.80
2018-08-13T07:05:40.229Z,18.60
2018-08-13T07:08:08.161Z,18.60
2018-08-13T07:10:35.618Z,18.50
2018-08-13T07:13:03.127Z,18.40
2018-08-13T07:15:30.537Z,18.40
2018-08-13T07:17:57.971Z,18.40
2018-08-13T07:20:25.427Z,18.20
2018-08-13T07:22:52.879Z,18.20
2018-08-13T07:25:20.268Z,18.30
2018-08-13T07:27:47.916Z,18.40
2018-08-13T07:30:15.383Z,18.50
2018-08-13T07:32:43.673Z,18.40
2018-08-13T07:35:11.170Z,18.60
2018-08-13T07:37:38.637Z,18.70
2018-08-13T07:40:08.912Z,18.70
2018-08-13T07:42:36.322Z,18.60
2018-08-13T07:45:04.801Z,18.60
2018-08-13T07:47:32.274Z,18.60
2018-08-13T07:49:59.781Z,18.80
2018-08-13T07:52:27.220Z,19.00
2018-08-13T07:54:54.702Z,19.00
2018-08-13T07:57:22.127Z,19.00
2018-08-13T07:59:49.583Z,19.10
2018-08-13T08:02:19.760Z,19.10
2018-08-13T08:04:47.212Z,19.20
2018-08-13T08:07:14.716Z,19.20
2018-08-13T08:09:42.579Z,19.20
2018-08-13T08:12:11.095Z,19.20
2018-08-13T08:14:38.531Z,19.40
2018-08-13T08:17:05.859Z,19.50
2018-08-13T08:19:33.707Z,19.50
2018-08-13T08:22:03.719Z,19.30
2018-08-13T08:24:31.171Z,19.50
2018-08-13T08:27:04.227Z,19.50
2018-08-13T08:29:31.639Z,19.50
2018-08-13T08:31:59.058Z,19.60
2018-08-13T08:34:30.934Z,19.60
2018-08-13T08:36:58.344Z,19.70
2018-08-13T08:39:25.771Z,19.60
2018-08-13T08:41:53.195Z,19.70
2018-08-13T08:44:20.606Z,19.80
2018-08-13T08:46:49.301Z,19.90
2018-08-13T08:49:18.935Z,19.90
2018-08-13T08:51:46.369Z,19.90
2018-08-13T08:54:13.817Z,20.10
2018-08-13T08:56:41.235Z,20.20
2018-08-13T08:59:09.530Z,19.90
2018-08-13T09:01:39.591Z,19.90
2018-08-13T09:04:08.184Z,19.80
2018-08-13T09:06:35.729Z,19.80
2018-08-13T09:09:06.604Z,19.60
2018-08-13T09:11:34.815Z,19.50
2018-08-13T09:14:07.572Z,19.30
2018-08-13T09:16:34.892Z,19.30
2018-08-13T09:19:14.034Z,19.50
2018-08-13T09:21:46.412Z,19.70
2018-08-13T09:24:25.322Z,19.50
2018-08-13T09:27:04.987Z,19.70
2018-08-13T09:29:44.040Z,19.80
2018-08-13T09:32:26.207Z,19.80
2018-08-13T09:34:56.049Z,19.60
2018-08-13T09:37:23.611Z,19.70
2018-08-13T09:39:51.103Z,19.80
2018-08-13T09:42:18.653Z,19.90
2018-08-13T09:44:50.776Z,20.20
2018-08-13T09:47:19.742Z,20.50
2018-08-13T09:49:48.133Z,20.80
2018-08-13T09:52:15.553Z,21.20
2018-08-13T09:54:42.947Z,21.60
2018-08-13T09:57:10.364Z,21.80
2018-08-13T09:59:39.559Z,21.80
2018-08-13T10:02:07.039Z,22.20
2018-08-13T10:04:34.543Z,22.20
2018-08-13T10:07:02.029Z,22.80
2018-08-13T10:09:29.399Z,22.80
2018-08-13T10:11:56.823Z,23.00
2018-08-13T10:14:25.883Z,22.70
2018-08-13T10:16:53.439Z,22.60
2018-08-13T10:19:20.743Z,22.70
2018-08-13T10:21:48.150Z,22.70
2018-08-13T10:24:15.582Z,22.60
2018-08-13T10:26:43.008Z,22.80
2018-08-13T10:29:10.415Z,22.70
2018-08-13T10:31:37.848Z,22.60
2018-08-13T10:34:05.263Z,22.50
2018-08-13T10:36:32.724Z,22.40
2018-08-13T10:39:00.136Z,22.40
2018-08-13T10:41:27.626Z,22.60
2018-08-13T10:43:55.037Z,22.80
2018-08-13T10:46:22.467Z,23.10
2018-08-13T10:48:49.917Z,23.20
2018-08-13T10:51:17.407Z,23.30
2018-08-13T10:53:44.853Z,23.40
2018-08-13T10:56:17.576Z,23.50
2018-08-13T10:58:44.987Z,23.70
2018-08-13T11:01:12.799Z,24.30
2018-08-13T11:03:40.141Z,24.90
2018-08-13T11:06:07.596Z,25.40
2018-08-13T11:08:39.393Z,25.00
2018-08-13T11:11:06.783Z,24.80
2018-08-13T11:13:34.279Z,24.40
2018-08-13T11:16:01.611Z,24.30
2018-08-13T11:18:29.064Z,24.80
2018-08-13T11:20:56.467Z,24.90
2018-08-13T11:23:26.384Z,24.70
2018-08-13T11:25:53.787Z,24.40
2018-08-13T11:28:21.208Z,24.30
2018-08-13T11:30:48.591Z,24.10
2018-08-13T11:33:16.082Z,23.60
2018-08-13T11:35:43.535Z,23.40
2018-08-13T11:38:15.631Z,22.90
2018-08-13T11:40:43.041Z,22.70
2018-08-13T11:43:10.455Z,22.50
2018-08-13T11:45:37.833Z,22.50
2018-08-13T11:48:05.303Z,22.50
2018-08-13T11:50:32.711Z,22.40
2018-08-13T11:53:04.203Z,22.30
2018-08-13T11:55:31.652Z,22.30
2018-08-13T11:57:59.058Z,22.20
2018-08-13T12:00:26.495Z,22.30
2018-08-13T12:02:53.907Z,22.20
2018-08-13T12:05:21.315Z,22.40
2018-08-13T12:07:48.739Z,22.40
2018-08-13T12:10:16.269Z,22.20
2018-08-13T12:12:44.064Z,22.10
2018-08-13T12:15:12.179Z,22.40
2018-08-13T12:17:40.044Z,22.50
2018-08-13T12:20:09.945Z,22.70
2018-08-13T12:22:37.437Z,23.10
2018-08-13T12:25:05.539Z,23.30
2018-08-13T12:27:32.948Z,24.00
2018-08-13T12:30:00.316Z,23.70
2018-08-13T12:32:27.767Z,23.90
2018-08-13T12:34:55.151Z,24.00
2018-08-13T12:37:22.664Z,23.80
2018-08-13T12:39:50.160Z,23.40
2018-08-13T12:42:17.647Z,23.20
2018-08-13T12:44:45.002Z,23.20
2018-08-13T12:47:12.417Z,23.30
2018-08-13T12:49:39.885Z,23.40
2018-08-13T12:52:07.301Z,23.40
2018-08-13T12:54:34.689Z,23.30
2018-08-13T12:57:02.120Z,23.20
2018-08-13T12:59:29.533Z,22.90
2018-08-13T13:01:56.981Z,22.60
2018-08-13T13:04:24.380Z,22.30
2018-08-13T13:06:51.775Z,22.30
2018-08-13T13:09:19.199Z,22.40
2018-08-13T13:11:48.278Z,22.20
2018-08-13T13:14:15.759Z,22.00
2018-08-13T13:16:43.195Z,22.00
2018-08-13T13:19:10.571Z,21.90
2018-08-13T13:21:37.972Z,21.60
2018-08-13T13:24:07.091Z,21.70
2018-08-13T13:26:37.551Z,21.70
2018-08-13T13:29:04.988Z,21.50
2018-08-13T13:31:32.391Z,21.50
2018-08-13T13:34:02.174Z,21.40
2018-08-13T13:36:29.637Z,21.20
2018-08-13T13:38:59.491Z,20.80
2018-08-13T13:41:29.287Z,20.50
2018-08-13T13:43:56.514Z,20.30
2018-08-13T13:46:23.805Z,20.20
2018-08-13T13:48:51.128Z,20.20
2018-08-13T13:51:18.413Z,20.30
2018-08-13T13:53:45.615Z,20.40
2018-08-13T13:56:14.372Z,20.40
2018-08-13T13:58:41.840Z,20.50
2018-08-13T14:01:09.248Z,20.40
2018-08-13T14:03:36.898Z,20.80
2018-08-13T14:06:04.306Z,20.70
2018-08-13T14:08:31.670Z,20.80
2018-08-13T14:11:01.159Z,21.10
2018-08-13T14:13:28.566Z,21.50
2018-08-13T14:15:56.044Z,22.20
2018-08-13T14:18:23.511Z,22.80
2018-08-13T14:20:50.877Z,23.10
2018-08-13T14:23:19.938Z,23.50
2018-08-13T14:25:49.314Z,23.90
2018-08-13T14:28:16.787Z,23.80
2018-08-13T14:30:44.240Z,23.90
2018-08-13T14:33:11.965Z,23.60
2018-08-13T14:35:39.400Z,23.30
2018-08-13T14:38:08.728Z,23.20
2018-08-13T14:40:38.857Z,23.00
2018-08-13T14:43:06.396Z,22.80
2018-08-13T14:45:33.867Z,22.60
2018-08-13T14:48:01.344Z,22.50
2018-08-13T14:50:28.932Z,22.20
2018-08-13T14:53:00.645Z,21.90
2018-08-13T14:55:28.099Z,21.80
2018-08-13T14:57:55.592Z,21.80
2018-08-13T15:00:29.932Z,21.60
2018-08-13T15:02:57.363Z,20.80
2018-08-13T15:05:25.274Z,20.10
2018-08-13T15:07:53.783Z,19.80
2018-08-13T15:10:23.570Z,19.40
2018-08-13T15:12:51.127Z,19.00
2018-08-13T15:15:18.708Z,18.80
2018-08-13T15:17:46.462Z,18.60
2018-08-13T15:20:20.319Z,18.40
2018-08-13T15:22:47.524Z,18.30
2018-08-13T15:25:14.751Z,18.10
2018-08-13T15:27:42.192Z,18.20
2018-08-13T15:30:12.396Z,18.20
2018-08-13T15:35:19.027Z,18.20
2018-08-13T15:37:47.996Z,18.40
2018-08-13T15:40:15.395Z,18.50
2018-08-13T15:42:42.985Z,18.60
2018-08-13T15:45:11.663Z,18.70
2018-08-13T15:47:39.216Z,18.60
2018-08-13T15:50:06.775Z,18.60
2018-08-13T15:52:33.963Z,18.60
2018-08-13T15:55:02.809Z,18.60
2018-08-13T15:57:30.076Z,18.70
2018-08-13T15:59:57.985Z,18.90
2018-08-13T16:02:25.225Z,18.80
2018-08-13T16:04:52.495Z,18.90
2018-08-13T16:07:19.750Z,19.00
2018-08-13T16:09:47.292Z,19.00
2018-08-13T16:12:15.518Z,19.00
2018-08-13T16:14:46.321Z,19.00
2018-08-13T16:17:13.731Z,19.00
2018-08-13T16:19:40.952Z,19.20
2018-08-13T16:22:08.198Z,19.00
2018-08-13T16:24:35.452Z,19.10
2018-08-13T16:27:03.312Z,19.10
2018-08-13T16:29:30.530Z,19.20
2018-08-13T16:31:57.978Z,19.20
2018-08-13T16:34:25.251Z,19.20
2018-08-13T16:36:53.497Z,19.30
2018-08-13T16:39:20.818Z,19.40
2018-08-13T16:41:48.019Z,19.20
2018-08-13T16:44:15.211Z,19.30
2018-08-13T16:46:42.439Z,19.40
2018-08-13T16:49:13.662Z,19.60
2018-08-13T16:51:41.060Z,19.60
2018-08-13T16:54:08.287Z,19.70
2018-08-13T16:56:35.623Z,19.70
2018-08-13T16:59:03.195Z,19.90
2018-08-13T17:01:30.422Z,19.80
2018-08-13T17:03:59.068Z,19.90
2018-08-13T17:06:26.318Z,20.00
2018-08-13T17:08:57.309Z,20.10
2018-08-13T17:11:30.154Z,20.00
2018-08-13T17:13:57.664Z,20.20
2018-08-13T17:16:24.892Z,20.20
2018-08-13T17:18:52.092Z,20.30
2018-08-13T17:21:23.365Z,20.20
2018-08-13T17:23:51.955Z,20.30
2018-08-13T17:26:19.217Z,20.10
2018-08-13T17:28:46.416Z,20.10
2018-08-13T17:31:13.683Z,19.90
2018-08-13T17:33:46.450Z,20.10
2018-08-13T17:36:15.326Z,20.10
2018-08-13T17:38:42.571Z,20.10
2018-08-13T17:41:09.780Z,20.10
2018-08-13T17:43:37.022Z,20.10
2018-08-13T17:46:09.414Z,20.10
2018-08-13T17:48:36.692Z,20.00
2018-08-13T17:51:03.972Z,20.00
2018-08-13T17:53:31.270Z,20.10
2018-08-13T17:55:58.565Z,20.00
2018-08-13T17:58:25.783Z,19.90
2018-08-13T18:00:53.019Z,19.90
2018-08-13T18:03:24.251Z,19.90
2018-08-13T18:05:51.458Z,19.70
2018-08-13T18:08:18.937Z,19.90
2018-08-13T18:10:46.473Z,19.90
2018-08-13T18:13:16.507Z,19.90
2018-08-13T18:15:44.016Z,19.90
2018-08-13T18:18:11.403Z,19.90
2018-08-13T18:20:38.870Z,19.90
2018-08-13T18:23:06.343Z,19.80
2018-08-13T18:25:33.790Z,19.70
2018-08-13T18:28:01.372Z,19.80
2018-08-13T18:30:30.087Z,19.80
2018-08-13T18:32:58.283Z,19.80
2018-08-13T18:35:25.808Z,19.80
2018-08-13T18:37:53.943Z,19.80
2018-08-13T18:40:26.288Z,19.80
2018-08-13T18:42:54.257Z,19.80
2018-08-13T18:45:21.798Z,19.70
2018-08-13T18:47:50.044Z,19.60
2018-08-13T18:50:18.769Z,19.60
2018-08-13T18:52:46.298Z,19.70
2018-08-13T18:55:15.318Z,19.60
2018-08-13T18:57:42.861Z,19.60
2018-08-13T19:00:23.875Z,19.50
2018-08-13T19:02:51.255Z,19.50
2018-08-13T19:05:19.589Z,19.50
2018-08-13T19:07:47.129Z,19.40
2018-08-13T19:10:15.388Z,19.30
2018-08-13T19:12:42.646Z,19.30
2018-08-13T19:15:14.942Z,19.40
2018-08-13T19:17:42.179Z,19.30
2018-08-13T19:20:10.776Z,19.20
2018-08-13T19:22:37.975Z,19.40
2018-08-13T19:25:07.739Z,19.40
2018-08-13T19:27:35.048Z,19.50
2018-08-13T19:30:02.295Z,19.60
2018-08-13T19:32:29.718Z,19.70
2018-08-13T19:34:57.111Z,19.60
2018-08-13T19:37:24.327Z,19.60
2018-08-13T19:39:51.586Z,19.60
2018-08-13T19:42:18.951Z,19.60
2018-08-13T19:44:46.755Z,19.70
2018-08-13T19:47:13.990Z,19.50
2018-08-13T19:49:41.232Z,19.40
2018-08-13T19:52:08.571Z,19.50
2018-08-13T19:54:36.036Z,19.40
2018-08-13T19:57:03.337Z,19.40
2018-08-13T19:59:30.634Z,19.40
2018-08-13T20:01:57.950Z,19.40
2018-08-13T20:04:25.250Z,19.50
2018-08-13T20:06:52.627Z,19.60
2018-08-13T20:09:20.076Z,19.60
2018-08-13T20:11:52.514Z,19.60
2018-08-13T20:14:20.491Z,19.40
2018-08-13T20:16:47.991Z,19.20
2018-08-13T20:19:15.456Z,19.20
2018-08-13T20:21:42.998Z,19.30
2018-08-13T20:24:10.459Z,19.30
2018-08-13T20:26:37.882Z,19.10
2018-08-13T20:29:05.367Z,19.10
2018-08-13T20:31:32.767Z,19.10
2018-08-13T20:34:00.211Z,19.10
2018-08-13T20:36:27.667Z,19.10
2018-08-13T20:38:55.206Z,19.20
2018-08-13T20:41:22.636Z,19.10
2018-08-13T20:43:50.195Z,19.10
2018-08-13T20:46:18.970Z,19.00
2018-08-13T20:48:46.426Z,19.00
2018-08-13T20:51:13.839Z,19.00
2018-08-13T20:53:41.366Z,18.80
2018-08-13T20:56:08.873Z,18.80
2018-08-13T20:58:36.668Z,18.60
2018-08-13T21:01:04.194Z,18.70
2018-08-13T21:03:31.720Z,18.60
2018-08-13T21:05:59.140Z,18.60
2018-08-13T21:08:26.560Z,18.60
2018-08-13T21:10:53.962Z,18.60
2018-08-13T21:13:21.346Z,18.60
2018-08-13T21:15:48.857Z,18.50
2018-08-13T21:18:16.213Z,18.60
2018-08-13T21:20:43.671Z,18.60
2018-08-13T21:23:11.217Z,18.60
2018-08-13T21:25:38.773Z,18.50
2018-08-13T21:28:06.219Z,18.40
2018-08-13T21:30:33.819Z,18.40
2018-08-13T21:33:01.179Z,18.30
2018-08-13T21:35:28.660Z,18.30
2018-08-13T21:37:56.081Z,18.20
2018-08-13T21:40:23.595Z,18.20
2018-08-13T21:42:51.174Z,18.30
2018-08-13T21:45:18.883Z,18.20
2018-08-13T21:47:46.337Z,18.20
2018-08-13T21:50:18.097Z,18.10
2018-08-13T21:52:46.347Z,18.10
2018-08-13T21:55:13.813Z,18.10
2018-08-13T21:57:41.237Z,18.00
2018-08-13T22:00:16.236Z,18.00
2018-08-13T22:02:43.705Z,18.10
2018-08-13T22:05:11.431Z,18.00
2018-08-13T22:07:38.886Z,18.10
2018-08-13T22:10:07.443Z,18.10
2018-08-13T22:12:34.904Z,18.00
2018-08-13T22:15:09.942Z,18.00
2018-08-13T22:17:37.435Z,18.10
2018-08-13T22:20:04.990Z,18.20
2018-08-13T22:22:32.636Z,18.00
2018-08-13T22:25:01.214Z,18.00
2018-08-13T22:27:28.671Z,17.90
2018-08-13T22:29:56.225Z,18.00
2018-08-13T22:32:23.738Z,18.10
2018-08-13T22:34:51.180Z,18.10
2018-08-13T22:37:19.894Z,18.10
2018-08-13T22:39:47.336Z,18.20
2018-08-13T22:42:14.912Z,18.20
2018-08-13T22:44:42.312Z,18.20
2018-08-13T22:47:09.715Z,18.30
2018-08-13T22:49:37.191Z,18.20
2018-08-13T22:52:04.716Z,18.20
2018-08-13T22:54:32.130Z,18.20
2018-08-13T22:56:59.544Z,18.30
2018-08-13T22:59:27.029Z,18.20
2018-08-13T23:01:54.784Z,18.20
2018-08-13T23:04:22.220Z,18.20
2018-08-13T23:06:49.644Z,18.10
2018-08-13T23:09:17.088Z,18.00
2018-08-13T23:11:44.506Z,18.10
2018-08-13T23:14:11.959Z,18.20
2018-08-13T23:16:39.444Z,18.20
2018-08-13T23:19:06.874Z,18.10
2018-08-13T23:21:34.369Z,18.10
2018-08-13T23:24:01.792Z,18.10
2018-08-13T23:26:29.282Z,18.10
2018-08-13T23:28:56.704Z,18.10
2018-08-13T23:31:24.180Z,18.20
2018-08-13T23:33:51.669Z,18.10
2018-08-13T23:36:19.221Z,18.20
2018-08-13T23:38:46.759Z,18.20
2018-08-13T23:41:14.338Z,18.30
2018-08-13T23:43:41.863Z,18.40
2018-08-13T23:46:10.175Z,18.30
2018-08-13T23:48:37.591Z,18.40
2018-08-13T23:51:05.042Z,18.50
2018-08-13T23:53:32.442Z,18.40
2018-08-13T23:55:59.870Z,18.50
2018-08-13T23:58:27.299Z,18.50
